Sunday, November 23, 2014
14:38 UTC
  |  Log In   |  Register Free
Airport Search:

Newnan Coweta County Airport
(KCCO)

Newnan Coweta County Airport Diagram
No Airport Diagram Available

FAA data valid effective November 13, 2014 - January 08, 2015 (unless otherwise noted).

 
 
 
 
 
 
 
 
 
 
 
 
 
 

Current Aviation Weather for Newnan Coweta County Airport (KCCO)

The most recent METAR observation for KCCO was updated at: 1409
METAR Summary (Translated METAR)
KCCO
231355Z AUTO 10011KT 3SM RA OVC003 12/12 A2997 RMK AO2 T01230123
KFFC
231353Z AUTO 09008KT 1 1/4SM -RA BR BKN006 OVC011 11/11 A3000 RMK AO2 SLP158 P0011 T01110106
(10.3 nm NE from KCCO)
KLGC
231355Z AUTO 13005KT 5SM BR OVC006 16/15 A2995 RMK AO2 T01600153
(23.7 nm SW from KCCO)
TAF
No TAF information found within 50 nm of KCCO
  Airport Weather Conditions for KCCO

 Current Weather at CCO
54° F
Light Rain
East winds at 12.7 mph
CCO NOAA Radar

Pressure: 29.97 in
Humidity: 100%
Wind: East at 12.7 MPH (11 KT)
Dew Point: 54.1°F
Visibility: 3.00 mi


Airport Weather Forecast for KCCO

Translated METAR and TAF for KCCO
Translated METAR for KCCO (1433 UTC 23 November 2014)
found at http://aviationweather.gov/adds/metars/
 
METAR text: KCCO 231415Z AUTO 10009G15KT 4SM DZ OVC003 13/13 A2997 RMK AO2 T01250125
Conditions at: KCCO (NEWNAN , GA, US) observed 1415 UTC 23 November 2014
Temperature: 12.5°C (54°F)
Dewpoint: 12.5°C (54°F) [RH = 100%]
Pressure (altimeter): 29.97 inches Hg (1015.0 mb)
Winds: from the E (100 degrees) at 10 MPH (9 knots; 4.7 m/s)
gusting to 17 MPH (15 knots; 7.8 m/s)
Visibility: 4 miles (6 km)
Ceiling: 300 feet AGL
Clouds: overcast cloud deck at 300 feet AGL
Weather: DZ  (drizzle)
Translated TAF for KCCO

There is no translated TAF available for this airport

Find All Airport Services Find A Hotel Find A Rental Car Find A Golf Course Find A Restaurant $100 Hamburger



FBO's on the Field
FBO Company Facility Photos Services Transportation Aviation Fuel Prices: Prices include tax
Catering Weather Repair Courtesy Rental Type 100LL JetA JetA+ MOGAS 8087
 
CCO Airport Services

This FBO has not yet been rated
FS:Shell
Last Updated: Nov-21
Login to update fuel prices
SS:
Contact CCO Airport ServicesMore FBO Information
 
Add another FBO Facility Photos Catering Weather Repair Courtesy Rental Type 100LL JetA JetA+ MOGAS 8087
Services Transportation Aviation Fuel Prices: Prices include tax


model-print
model-print
model-print
model-print